createdAt,value
2023-01-08T00:01:07.336Z,75.20
2023-01-08T00:03:34.405Z,73.65
2023-01-08T00:06:06.056Z,74.15
2023-01-08T00:08:33.422Z,73.22
2023-01-08T00:11:00.484Z,73.14
2023-01-08T00:13:27.179Z,73.67
2023-01-08T00:15:54.045Z,72.92
2023-01-08T00:18:21.003Z,74.27
2023-01-08T00:20:48.779Z,72.72
2023-01-08T00:23:17.598Z,74.45
2023-01-08T00:25:44.255Z,73.13
2023-01-08T00:28:11.043Z,72.80
2023-01-08T00:30:37.701Z,73.27
2023-01-08T00:33:04.511Z,74.75
2023-01-08T00:35:31.002Z,73.38
2023-01-08T00:37:57.561Z,74.60
2023-01-08T00:40:24.090Z,74.91
2023-01-08T00:42:50.482Z,75.37
2023-01-08T00:45:16.889Z,74.90
2023-01-08T00:47:43.426Z,74.52
2023-01-08T00:50:10.404Z,75.36
2023-01-08T00:52:37.028Z,74.36
2023-01-08T00:55:03.745Z,75.50
2023-01-08T00:57:38.058Z,74.36
2023-01-08T01:00:08.657Z,73.60
2023-01-08T01:02:36.396Z,73.83
2023-01-08T01:05:03.465Z,75.52
2023-01-08T01:07:29.851Z,74.81
2023-01-08T01:09:56.239Z,75.31
2023-01-08T01:12:22.826Z,73.82
2023-01-08T01:14:49.218Z,75.25
2023-01-08T01:17:15.888Z,75.47
2023-01-08T01:19:42.567Z,75.67
2023-01-08T01:22:08.984Z,75.62
2023-01-08T01:24:35.624Z,74.32
2023-01-08T01:27:02.211Z,73.53
2023-01-08T01:29:28.709Z,74.08
2023-01-08T01:31:55.112Z,75.40
2023-01-08T01:34:21.671Z,74.27
2023-01-08T01:36:48.176Z,76.03
2023-01-08T01:39:14.677Z,74.99
2023-01-08T01:41:44.502Z,75.37
2023-01-08T01:44:43.078Z,76.00
2023-01-08T01:47:33.048Z,74.58
2023-01-08T01:50:10.505Z,75.63
2023-01-08T01:52:52.793Z,75.00
2023-01-08T01:55:19.508Z,75.45
2023-01-08T01:57:52.667Z,74.49
2023-01-08T02:00:19.435Z,75.43
2023-01-08T02:02:45.879Z,75.05
2023-01-08T02:05:12.364Z,75.11
2023-01-08T02:08:06.226Z,74.76
2023-01-08T02:10:42.336Z,75.36
2023-01-08T02:13:17.631Z,75.30
2023-01-08T02:16:00.289Z,75.60
2023-01-08T02:18:34.446Z,75.97
2023-01-08T02:21:10.332Z,74.45
2023-01-08T02:23:41.808Z,74.93
2023-01-08T02:26:30.016Z,75.84
2023-01-08T02:29:18.907Z,74.63
2023-01-08T02:31:45.955Z,75.88
2023-01-08T02:34:13.045Z,75.52
2023-01-08T02:36:42.335Z,74.89
2023-01-08T02:39:21.021Z,75.84
2023-01-08T02:41:56.895Z,75.58
2023-01-08T02:44:45.212Z,75.88
2023-01-08T02:47:21.964Z,75.27
2023-01-08T02:49:52.247Z,75.57
2023-01-08T02:52:19.815Z,75.27
2023-01-08T02:54:48.345Z,75.65
2023-01-08T02:57:17.813Z,75.82
2023-01-08T02:59:47.284Z,75.25
2023-01-08T03:02:14.093Z,75.66
2023-01-08T03:04:50.287Z,75.25
2023-01-08T03:07:16.742Z,75.81
2023-01-08T03:09:43.271Z,74.62
2023-01-08T03:12:19.253Z,75.81
2023-01-08T03:15:04.840Z,74.59
2023-01-08T03:17:36.134Z,75.90
2023-01-08T03:20:14.021Z,76.17
2023-01-08T03:22:43.855Z,75.18
2023-01-08T03:25:13.020Z,75.41
2023-01-08T03:27:45.386Z,76.03
2023-01-08T03:30:14.119Z,75.24
2023-01-08T03:32:43.281Z,75.69
2023-01-08T03:35:13.621Z,75.96
2023-01-08T03:37:45.670Z,75.40
2023-01-08T03:40:22.616Z,76.08
2023-01-08T03:42:49.182Z,75.45
2023-01-08T03:45:15.712Z,75.42
2023-01-08T03:47:43.614Z,75.52
2023-01-08T03:50:15.941Z,75.15
2023-01-08T03:52:42.329Z,75.52
2023-01-08T03:55:09.279Z,75.35
2023-01-08T03:57:35.667Z,76.27
2023-01-08T04:00:02.144Z,76.03
2023-01-08T04:02:28.658Z,75.84
2023-01-08T04:04:55.107Z,74.87
2023-01-08T04:07:21.673Z,75.77
2023-01-08T04:09:48.130Z,75.81
2023-01-08T04:12:14.544Z,75.52
2023-01-08T04:14:40.971Z,77.12
2023-01-08T04:17:07.425Z,76.12
2023-01-08T04:19:33.817Z,76.57
2023-01-08T04:22:00.258Z,76.68
2023-01-08T04:24:26.691Z,77.15
2023-01-08T04:26:53.110Z,77.39
2023-01-08T04:29:19.523Z,76.29
2023-01-08T04:31:45.958Z,76.97
2023-01-08T04:34:12.524Z,76.36
2023-01-08T04:36:39.084Z,75.96
2023-01-08T04:39:05.683Z,76.69
2023-01-08T04:41:32.154Z,76.59
2023-01-08T04:43:58.675Z,76.69
2023-01-08T04:46:25.240Z,76.97
2023-01-08T04:48:51.676Z,76.27
2023-01-08T04:51:18.105Z,76.09
2023-01-08T04:53:45.503Z,76.86
2023-01-08T04:56:11.953Z,75.95
2023-01-08T04:58:39.315Z,77.06
2023-01-08T05:01:23.927Z,77.14
2023-01-08T05:03:59.248Z,76.15
2023-01-08T05:06:26.732Z,76.20
2023-01-08T05:08:53.333Z,76.92
2023-01-08T05:11:20.022Z,76.08
2023-01-08T05:13:51.311Z,76.25
2023-01-08T05:16:18.262Z,77.01
2023-01-08T05:18:45.609Z,77.24
2023-01-08T05:21:13.257Z,77.01
2023-01-08T05:23:39.919Z,76.88
2023-01-08T05:26:07.228Z,76.39
2023-01-08T05:28:34.458Z,76.13
2023-01-08T05:31:00.992Z,76.97
2023-01-08T05:33:27.796Z,76.60
2023-01-08T05:35:54.245Z,76.58
2023-01-08T05:38:20.987Z,76.46
2023-01-08T05:40:47.403Z,77.35
2023-01-08T05:43:13.841Z,77.00
2023-01-08T05:45:40.245Z,77.17
2023-01-08T05:48:07.501Z,77.76
2023-01-08T05:50:34.601Z,77.32
2023-01-08T05:53:01.103Z,76.38
2023-01-08T05:55:27.811Z,76.73
2023-01-08T05:57:54.230Z,77.16
2023-01-08T06:00:20.754Z,76.08
2023-01-08T06:02:48.270Z,77.08
2023-01-08T06:05:14.879Z,75.86
2023-01-08T06:07:41.315Z,76.06
2023-01-08T06:10:08.323Z,77.21
2023-01-08T06:12:34.952Z,76.46
2023-01-08T06:15:01.373Z,77.27
2023-01-08T06:17:27.778Z,76.38
2023-01-08T06:19:54.273Z,76.33
2023-01-08T06:22:20.697Z,77.39
2023-01-08T06:24:47.075Z,76.39
2023-01-08T06:27:13.525Z,76.07
2023-01-08T06:29:39.920Z,77.26
2023-01-08T06:32:06.502Z,77.32
2023-01-08T06:34:32.938Z,76.10
2023-01-08T06:36:59.318Z,77.21
2023-01-08T06:39:25.789Z,76.72
2023-01-08T06:41:52.206Z,77.35
2023-01-08T06:44:18.677Z,76.25
2023-01-08T06:46:45.149Z,77.45
2023-01-08T06:49:11.627Z,76.00
2023-01-08T06:51:38.008Z,76.87
2023-01-08T06:54:04.499Z,76.85
2023-01-08T06:56:30.991Z,77.81
2023-01-08T06:58:57.401Z,78.11
2023-01-08T07:01:24.019Z,78.30
2023-01-08T07:03:50.788Z,76.73
2023-01-08T07:06:20.082Z,77.73
2023-01-08T07:08:47.358Z,78.82
2023-01-08T07:11:15.085Z,78.15
2023-01-08T07:13:41.750Z,77.63
2023-01-08T07:16:10.343Z,77.87
2023-01-08T07:18:37.072Z,78.45
2023-01-08T07:21:05.396Z,78.17
2023-01-08T07:23:32.614Z,78.23
2023-01-08T07:26:07.862Z,79.24
2023-01-08T07:28:34.353Z,78.26
2023-01-08T07:31:05.602Z,79.67
2023-01-08T07:33:32.295Z,79.37
2023-01-08T07:35:58.709Z,79.55
2023-01-08T07:38:25.228Z,79.22
2023-01-08T07:40:51.701Z,79.92
2023-01-08T07:43:18.371Z,80.63
2023-01-08T07:45:44.813Z,79.44
2023-01-08T07:48:15.604Z,79.60
2023-01-08T07:50:45.560Z,80.48
2023-01-08T07:53:13.694Z,80.12
2023-01-08T07:55:40.170Z,81.39
2023-01-08T07:58:11.506Z,80.18
2023-01-08T08:00:38.522Z,80.93
2023-01-08T08:03:06.575Z,81.04
2023-01-08T08:05:34.987Z,81.66
2023-01-08T08:08:01.693Z,81.78
2023-01-08T08:10:28.536Z,81.59
2023-01-08T08:12:55.043Z,81.60
2023-01-08T08:15:21.532Z,81.87
2023-01-08T08:17:48.401Z,82.17
2023-01-08T08:20:15.480Z,81.29
2023-01-08T08:22:41.890Z,81.26
2023-01-08T08:25:08.965Z,81.62
2023-01-08T08:27:35.415Z,81.86
2023-01-08T08:30:01.967Z,81.30
2023-01-08T08:32:28.594Z,81.59
2023-01-08T08:34:55.577Z,82.42
2023-01-08T08:37:21.988Z,82.52
2023-01-08T08:39:48.386Z,82.11
2023-01-08T08:42:14.800Z,81.92
2023-01-08T08:44:42.873Z,82.68
2023-01-08T08:47:10.096Z,82.39
2023-01-08T08:49:36.526Z,82.29
2023-01-08T08:52:04.177Z,81.73
2023-01-08T08:54:30.655Z,82.91
2023-01-08T08:56:57.129Z,83.07
2023-01-08T08:59:23.552Z,82.11
2023-01-08T09:01:50.064Z,83.58
2023-01-08T09:04:16.613Z,82.02
2023-01-08T09:06:42.986Z,83.34
2023-01-08T09:09:09.482Z,83.42
2023-01-08T09:11:35.928Z,83.43
2023-01-08T09:14:02.392Z,82.42
2023-01-08T09:16:28.809Z,83.53
2023-01-08T09:18:56.267Z,83.85
2023-01-08T09:21:22.640Z,83.06
2023-01-08T09:23:49.598Z,83.54
2023-01-08T09:26:16.210Z,83.30
2023-01-08T09:28:42.616Z,83.66
2023-01-08T09:31:09.161Z,83.56
2023-01-08T09:33:35.626Z,83.85
2023-01-08T09:36:02.084Z,84.11
2023-01-08T09:38:30.014Z,84.77
2023-01-08T09:41:11.459Z,83.57
2023-01-08T09:43:43.393Z,84.01
2023-01-08T09:46:12.184Z,84.17
2023-01-08T09:48:40.612Z,83.19
2023-01-08T09:51:13.432Z,84.14
2023-01-08T09:53:40.638Z,84.05
2023-01-08T09:56:14.803Z,83.27
2023-01-08T09:58:55.892Z,84.48
2023-01-08T10:01:26.075Z,83.67
2023-01-08T10:04:13.061Z,84.53
2023-01-08T10:06:40.966Z,84.00
2023-01-08T10:09:14.385Z,82.93
2023-01-08T10:11:44.934Z,84.36
2023-01-08T10:14:22.424Z,83.33
2023-01-08T10:16:57.354Z,84.60
2023-01-08T10:19:23.914Z,85.13
2023-01-08T10:21:51.475Z,83.72
2023-01-08T10:24:19.229Z,84.21
2023-01-08T10:26:47.689Z,83.30
2023-01-08T10:29:20.600Z,83.83
2023-01-08T10:31:55.519Z,84.59
2023-01-08T10:34:41.325Z,84.04
2023-01-08T10:37:24.681Z,83.43
2023-01-08T10:39:52.539Z,84.20
2023-01-08T10:42:20.931Z,85.20
2023-01-08T10:45:13.329Z,84.03
2023-01-08T10:47:39.799Z,83.95
2023-01-08T10:50:20.307Z,85.02
2023-01-08T10:52:58.872Z,84.04
2023-01-08T10:55:37.380Z,83.85
2023-01-08T10:58:14.195Z,84.25
2023-01-08T11:00:41.501Z,86.09
2023-01-08T11:03:19.824Z,84.76
2023-01-08T11:05:46.453Z,85.42
2023-01-08T11:08:17.791Z,85.28
2023-01-08T11:10:53.860Z,86.02
2023-01-08T11:13:20.386Z,85.22
2023-01-08T11:15:58.564Z,86.00
2023-01-08T11:18:26.641Z,84.61
2023-01-08T11:21:05.989Z,85.45
2023-01-08T11:23:32.648Z,84.41
2023-01-08T11:26:08.134Z,85.36
2023-01-08T11:28:49.466Z,85.08
2023-01-08T11:31:39.600Z,85.74
2023-01-08T11:34:15.550Z,85.00
2023-01-08T11:36:51.058Z,85.95
2023-01-08T11:39:19.109Z,86.05
2023-01-08T11:42:23.178Z,84.75
2023-01-08T11:45:01.196Z,84.89
2023-01-08T11:47:35.182Z,85.00
2023-01-08T11:50:24.666Z,86.67
2023-01-08T11:53:14.642Z,86.58
2023-01-08T11:55:50.496Z,85.38
2023-01-08T11:58:32.172Z,86.06
2023-01-08T12:01:04.344Z,85.05
2023-01-08T12:03:37.372Z,84.79
2023-01-08T12:06:28.063Z,86.17
2023-01-08T12:09:03.800Z,86.42
2023-01-08T12:11:44.843Z,84.59
2023-01-08T12:14:34.796Z,86.16
2023-01-08T12:17:14.143Z,86.37
2023-01-08T12:19:52.830Z,86.39
2023-01-08T12:22:22.134Z,84.72
2023-01-08T12:24:57.645Z,84.80
2023-01-08T12:27:58.260Z,84.28
2023-01-08T12:30:36.451Z,85.58
2023-01-08T12:33:09.224Z,84.40
2023-01-08T12:35:44.817Z,84.42
2023-01-08T12:38:43.251Z,84.42
2023-01-08T12:41:16.637Z,84.86
2023-01-08T12:44:05.413Z,84.71
2023-01-08T12:46:35.144Z,85.08
2023-01-08T12:49:04.541Z,85.04
2023-01-08T12:51:54.644Z,84.74
2023-01-08T12:54:51.448Z,84.00
2023-01-08T12:57:27.064Z,84.49
2023-01-08T13:00:03.146Z,83.64
2023-01-08T13:03:04.145Z,84.88
2023-01-08T13:05:36.745Z,84.38
2023-01-08T13:08:22.169Z,85.36
2023-01-08T13:10:54.150Z,85.37
2023-01-08T13:13:30.657Z,84.78
2023-01-08T13:16:14.175Z,85.58
2023-01-08T13:18:40.982Z,85.23
2023-01-08T13:21:11.693Z,85.97
2023-01-08T13:23:38.774Z,83.59
2023-01-08T13:26:06.742Z,84.92
2023-01-08T13:28:43.457Z,85.12
2023-01-08T13:31:22.214Z,85.92
2023-01-08T13:33:52.304Z,85.99
2023-01-08T13:36:30.303Z,86.27
2023-01-08T13:39:23.263Z,85.29
2023-01-08T13:42:13.117Z,84.81
2023-01-08T13:44:42.496Z,84.54
2023-01-08T13:47:33.600Z,84.61
2023-01-08T13:50:21.470Z,85.87
2023-01-08T13:53:12.737Z,86.08
2023-01-08T13:55:41.794Z,86.13
2023-01-08T13:58:18.456Z,85.56
2023-01-08T14:00:49.353Z,86.48
2023-01-08T14:03:30.684Z,85.86
2023-01-08T14:06:23.478Z,85.40
2023-01-08T14:08:58.924Z,86.03
2023-01-08T14:11:47.042Z,85.33
2023-01-08T14:14:17.193Z,85.86
2023-01-08T14:16:44.791Z,85.42
2023-01-08T14:19:17.337Z,85.69
2023-01-08T14:21:52.601Z,84.99
2023-01-08T14:24:20.261Z,85.26
2023-01-08T14:26:58.895Z,85.58
2023-01-08T14:29:30.778Z,86.94
2023-01-08T14:32:00.205Z,84.80
2023-01-08T14:34:30.006Z,85.33
2023-01-08T14:36:57.187Z,84.64
2023-01-08T14:39:35.090Z,85.14
2023-01-08T14:42:31.753Z,85.81
2023-01-08T14:45:03.604Z,85.67
2023-01-08T14:47:35.321Z,85.17
2023-01-08T14:50:01.835Z,85.79
2023-01-08T14:52:28.831Z,83.89
2023-01-08T14:55:03.049Z,84.21
2023-01-08T14:57:30.022Z,84.83
2023-01-08T15:00:02.070Z,85.89
2023-01-08T15:02:34.856Z,83.97
2023-01-08T15:05:15.931Z,84.19
2023-01-08T15:07:45.045Z,84.38
2023-01-08T15:10:41.965Z,83.72
2023-01-08T15:13:29.708Z,85.84
2023-01-08T15:15:59.319Z,85.09
2023-01-08T15:18:26.176Z,84.70
2023-01-08T15:20:53.423Z,83.67
2023-01-08T15:23:51.436Z,83.49
2023-01-08T15:26:18.733Z,85.86
2023-01-08T15:28:58.322Z,85.93
2023-01-08T15:31:32.978Z,83.94
2023-01-08T15:34:00.505Z,83.43
2023-01-08T15:36:27.397Z,83.88
2023-01-08T15:38:53.937Z,85.01
2023-01-08T15:41:41.579Z,84.98
2023-01-08T15:44:10.063Z,85.74
2023-01-08T15:46:36.525Z,83.60
2023-01-08T15:49:03.004Z,85.58
2023-01-08T15:51:33.205Z,84.42
2023-01-08T15:54:01.323Z,84.42
2023-01-08T15:56:27.790Z,84.20
2023-01-08T15:58:54.264Z,84.01
2023-01-08T16:01:20.773Z,84.05
2023-01-08T16:03:48.358Z,84.20
2023-01-08T16:06:14.964Z,85.53
2023-01-08T16:08:45.780Z,84.20
2023-01-08T16:11:13.728Z,83.82
2023-01-08T16:13:40.366Z,83.51
2023-01-08T16:16:11.666Z,84.39
2023-01-08T16:18:38.706Z,83.69
2023-01-08T16:21:06.552Z,84.23
2023-01-08T16:23:35.448Z,85.35
2023-01-08T16:26:10.418Z,84.86
2023-01-08T16:28:37.333Z,83.40
2023-01-08T16:31:04.252Z,83.58
2023-01-08T16:33:31.153Z,84.26
2023-01-08T16:36:03.065Z,83.57
2023-01-08T16:38:31.280Z,84.92
2023-01-08T16:40:59.769Z,84.77
2023-01-08T16:43:28.425Z,84.37
2023-01-08T16:45:55.199Z,83.20
2023-01-08T16:48:22.677Z,84.33
2023-01-08T16:50:49.816Z,84.35
2023-01-08T16:53:21.524Z,83.68
2023-01-08T16:55:47.875Z,83.64
2023-01-08T16:58:14.322Z,83.19
2023-01-08T17:00:40.849Z,84.60
2023-01-08T17:03:07.415Z,82.92
2023-01-08T17:05:36.189Z,83.99
2023-01-08T17:08:02.640Z,83.51
2023-01-08T17:10:29.251Z,84.20
2023-01-08T17:12:55.845Z,84.28
2023-01-08T17:15:22.353Z,84.23
2023-01-08T17:17:48.880Z,84.47
2023-01-08T17:20:15.581Z,82.83
2023-01-08T17:22:42.043Z,83.58
2023-01-08T17:25:09.044Z,84.59
2023-01-08T17:27:35.807Z,83.57
2023-01-08T17:30:02.536Z,83.56
2023-01-08T17:32:30.255Z,83.58
2023-01-08T17:34:56.749Z,84.49
2023-01-08T17:37:23.363Z,84.30
2023-01-08T17:39:49.946Z,82.66
2023-01-08T17:42:25.538Z,82.50
2023-01-08T17:44:52.677Z,83.96
2023-01-08T17:47:22.637Z,84.22
2023-01-08T17:49:50.513Z,83.07
2023-01-08T17:52:17.503Z,83.74
2023-01-08T17:54:44.053Z,84.19
2023-01-08T17:57:10.568Z,84.26
2023-01-08T17:59:37.496Z,83.04
2023-01-08T18:02:04.223Z,83.74
2023-01-08T18:04:32.851Z,82.65
2023-01-08T18:06:59.700Z,82.97
2023-01-08T18:09:26.223Z,83.86
2023-01-08T18:11:52.691Z,83.76
2023-01-08T18:14:19.257Z,83.49
2023-01-08T18:16:45.916Z,82.38
2023-01-08T18:19:13.142Z,83.50
2023-01-08T18:21:39.848Z,83.36
2023-01-08T18:24:06.666Z,82.94
2023-01-08T18:26:33.050Z,83.94
2023-01-08T18:28:59.572Z,83.50
2023-01-08T18:31:26.174Z,82.71
2023-01-08T18:33:52.972Z,83.42
2023-01-08T18:36:20.582Z,83.51
2023-01-08T18:38:48.401Z,82.73
2023-01-08T18:41:36.136Z,82.95
2023-01-08T18:44:05.241Z,82.96
2023-01-08T18:46:31.669Z,81.75
2023-01-08T18:48:58.120Z,82.14
2023-01-08T18:51:24.679Z,82.25
2023-01-08T18:53:51.256Z,83.50
2023-01-08T18:56:26.615Z,82.57
2023-01-08T18:58:53.135Z,82.33
2023-01-08T19:01:19.759Z,84.09
2023-01-08T19:03:46.270Z,82.04
2023-01-08T19:06:13.902Z,82.65
2023-01-08T19:08:41.991Z,82.88
2023-01-08T19:11:09.686Z,83.55
2023-01-08T19:13:36.176Z,82.44
2023-01-08T19:16:07.105Z,83.36
2023-01-08T19:18:34.373Z,81.86
2023-01-08T19:21:00.845Z,82.26
2023-01-08T19:23:28.798Z,82.74
2023-01-08T19:25:55.554Z,83.12
2023-01-08T19:28:22.019Z,82.57
2023-01-08T19:30:56.644Z,83.08
2023-01-08T19:33:23.904Z,81.83
2023-01-08T19:35:50.681Z,82.61
2023-01-08T19:38:17.772Z,83.32
2023-01-08T19:40:44.337Z,82.84
2023-01-08T19:43:31.054Z,82.20
2023-01-08T19:46:04.123Z,82.02
2023-01-08T19:48:32.094Z,80.61
2023-01-08T19:50:58.626Z,80.76
2023-01-08T19:53:25.085Z,82.10
2023-01-08T19:55:51.806Z,80.68
2023-01-08T19:58:19.464Z,80.45
2023-01-08T20:00:46.465Z,80.42
2023-01-08T20:03:13.172Z,80.98
2023-01-08T20:05:44.184Z,80.42
2023-01-08T20:08:10.596Z,80.16
2023-01-08T20:10:37.113Z,81.31
2023-01-08T20:13:04.159Z,79.42
2023-01-08T20:15:32.354Z,80.49
2023-01-08T20:17:59.494Z,81.10
2023-01-08T20:20:26.100Z,80.23
2023-01-08T20:22:52.504Z,79.51
2023-01-08T20:25:19.659Z,79.09
2023-01-08T20:27:46.101Z,79.53
2023-01-08T20:30:14.608Z,79.91
2023-01-08T20:32:42.072Z,80.43
2023-01-08T20:35:08.896Z,80.72
2023-01-08T20:37:36.115Z,79.78
2023-01-08T20:40:02.769Z,80.92
2023-01-08T20:42:33.969Z,79.73
2023-01-08T20:45:00.907Z,79.35
2023-01-08T20:47:27.453Z,80.81
2023-01-08T20:49:53.874Z,79.21
2023-01-08T20:52:20.298Z,79.84
2023-01-08T20:54:46.824Z,80.40
2023-01-08T20:57:13.283Z,80.87
2023-01-08T20:59:39.792Z,80.63
2023-01-08T21:02:07.170Z,80.27
2023-01-08T21:04:33.642Z,79.20
2023-01-08T21:07:00.251Z,79.02
2023-01-08T21:09:26.784Z,78.75
2023-01-08T21:11:53.334Z,78.45
2023-01-08T21:14:19.812Z,79.42
2023-01-08T21:16:47.315Z,79.33
2023-01-08T21:19:15.269Z,80.27
2023-01-08T21:21:41.731Z,78.76
2023-01-08T21:24:11.024Z,79.08
2023-01-08T21:26:37.866Z,79.39
2023-01-08T21:29:06.294Z,80.27
2023-01-08T21:31:33.669Z,78.99
2023-01-08T21:34:01.484Z,79.21
2023-01-08T21:36:30.090Z,80.69
2023-01-08T21:38:58.186Z,80.13
2023-01-08T21:41:44.609Z,79.52
2023-01-08T21:44:41.643Z,80.25
2023-01-08T21:47:16.435Z,80.32
2023-01-08T21:49:44.138Z,81.19
2023-01-08T21:52:29.105Z,81.07
2023-01-08T21:54:57.939Z,80.33
2023-01-08T21:57:27.659Z,80.39
2023-01-08T21:59:54.936Z,81.07
2023-01-08T22:02:23.284Z,81.18
2023-01-08T22:04:49.815Z,80.63
2023-01-08T22:07:17.117Z,81.26
2023-01-08T22:09:43.644Z,80.14
2023-01-08T22:12:10.079Z,79.98
2023-01-08T22:14:36.685Z,79.03
2023-01-08T22:17:08.309Z,80.62
2023-01-08T22:19:38.304Z,79.76
2023-01-08T22:22:04.856Z,79.10
2023-01-08T22:24:31.350Z,80.10
2023-01-08T22:26:57.847Z,79.18
2023-01-08T22:29:24.241Z,79.00
2023-01-08T22:31:50.703Z,78.36
2023-01-08T22:34:18.171Z,78.14
2023-01-08T22:36:46.300Z,78.05
2023-01-08T22:39:12.796Z,79.16
2023-01-08T22:41:39.183Z,78.82
2023-01-08T22:44:05.658Z,79.71
2023-01-08T22:46:32.101Z,79.32
2023-01-08T22:48:58.527Z,79.11
2023-01-08T22:51:27.802Z,78.94
2023-01-08T22:53:55.448Z,78.50
2023-01-08T22:56:22.308Z,80.00
2023-01-08T22:58:48.844Z,80.16
2023-01-08T23:01:22.184Z,80.37
2023-01-08T23:03:53.202Z,78.96
2023-01-08T23:06:21.760Z,79.88
2023-01-08T23:08:49.180Z,80.31
2023-01-08T23:11:18.058Z,80.59
2023-01-08T23:13:44.995Z,79.70
2023-01-08T23:16:13.549Z,79.84
2023-01-08T23:18:40.483Z,79.54
2023-01-08T23:21:12.515Z,80.37
2023-01-08T23:23:39.243Z,80.30
2023-01-08T23:26:11.158Z,79.77
2023-01-08T23:28:38.235Z,79.51
2023-01-08T23:31:09.887Z,80.54
2023-01-08T23:33:36.193Z,80.44
2023-01-08T23:36:03.277Z,80.50
2023-01-08T23:38:29.825Z,81.10
2023-01-08T23:40:56.640Z,81.60
2023-01-08T23:43:23.057Z,79.50
2023-01-08T23:45:50.246Z,81.25
2023-01-08T23:48:17.091Z,80.75
2023-01-08T23:50:43.492Z,79.85
2023-01-08T23:53:10.615Z,79.47
2023-01-08T23:55:37.045Z,80.03
2023-01-08T23:58:03.510Z,79.80
